sensor_id;sensor_type;location;lat;lon;timestamp;pressure;altitude;pressure_sealevel;temperature;humidity
15817;BME280;8009;50.070;8.232;2022-10-16T00:01:28;99701.78;;;14.27;98.43
15817;BME280;8009;50.070;8.232;2022-10-16T00:03:58;99703.19;;;14.22;99.06
15817;BME280;8009;50.070;8.232;2022-10-16T00:06:27;99695.06;;;14.22;98.72
15817;BME280;8009;50.070;8.232;2022-10-16T00:08:59;99703.75;;;14.25;98.82
15817;BME280;8009;50.070;8.232;2022-10-16T00:11:31;99711.75;;;14.27;98.85
15817;BME280;8009;50.070;8.232;2022-10-16T00:14:04;99711.00;;;14.34;98.55
15817;BME280;8009;50.070;8.232;2022-10-16T00:16:33;99707.91;;;14.29;98.67
15817;BME280;8009;50.070;8.232;2022-10-16T00:19:02;99702.19;;;14.23;99.33
15817;BME280;8009;50.070;8.232;2022-10-16T00:21:31;99703.47;;;14.19;98.93
15817;BME280;8009;50.070;8.232;2022-10-16T00:24:04;99702.50;;;14.20;99.28
15817;BME280;8009;50.070;8.232;2022-10-16T00:26:35;99696.91;;;14.21;98.75
15817;BME280;8009;50.070;8.232;2022-10-16T00:29:04;99700.19;;;14.25;98.56
15817;BME280;8009;50.070;8.232;2022-10-16T00:31:33;99709.06;;;14.17;99.19
15817;BME280;8009;50.070;8.232;2022-10-16T00:34:01;99701.03;;;14.25;98.46
15817;BME280;8009;50.070;8.232;2022-10-16T00:36:29;99708.50;;;14.23;98.21
15817;BME280;8009;50.070;8.232;2022-10-16T00:38:58;99697.63;;;14.23;98.75
15817;BME280;8009;50.070;8.232;2022-10-16T00:41:30;99699.78;;;14.20;98.59
15817;BME280;8009;50.070;8.232;2022-10-16T00:44:01;99698.16;;;14.27;98.51
15817;BME280;8009;50.070;8.232;2022-10-16T00:46:35;99694.75;;;14.25;98.54
15817;BME280;8009;50.070;8.232;2022-10-16T00:49:07;99702.19;;;14.23;98.97
15817;BME280;8009;50.070;8.232;2022-10-16T00:51:38;99710.47;;;14.31;98.37
15817;BME280;8009;50.070;8.232;2022-10-16T00:54:09;99719.16;;;14.34;98.26
15817;BME280;8009;50.070;8.232;2022-10-16T00:56:41;99721.75;;;14.36;98.33
15817;BME280;8009;50.070;8.232;2022-10-16T00:59:15;99729.50;;;14.31;98.85
15817;BME280;8009;50.070;8.232;2022-10-16T01:01:43;99735.47;;;14.34;98.65
15817;BME280;8009;50.070;8.232;2022-10-16T01:04:12;99738.63;;;14.39;98.77
15817;BME280;8009;50.070;8.232;2022-10-16T01:06:46;99739.19;;;14.33;98.92
15817;BME280;8009;50.070;8.232;2022-10-16T01:09:20;99734.94;;;14.31;98.79
15817;BME280;8009;50.070;8.232;2022-10-16T01:12:02;99726.22;;;14.27;98.99
15817;BME280;8009;50.070;8.232;2022-10-16T01:14:40;99719.91;;;14.27;99.03
15817;BME280;8009;50.070;8.232;2022-10-16T01:17:12;99722.06;;;14.23;99.24
15817;BME280;8009;50.070;8.232;2022-10-16T01:19:57;99721.19;;;14.32;99.24
15817;BME280;8009;50.070;8.232;2022-10-16T01:22:36;99717.72;;;14.40;98.59
15817;BME280;8009;50.070;8.232;2022-10-16T01:25:11;99719.59;;;14.39;98.22
15817;BME280;8009;50.070;8.232;2022-10-16T01:27:46;99714.28;;;14.38;98.10
15817;BME280;8009;50.070;8.232;2022-10-16T01:30:18;99709.75;;;14.38;98.24
15817;BME280;8009;50.070;8.232;2022-10-16T01:32:51;99723.31;;;14.38;98.61
15817;BME280;8009;50.070;8.232;2022-10-16T01:35:23;99728.94;;;14.27;99.36
15817;BME280;8009;50.070;8.232;2022-10-16T01:37:57;99731.19;;;14.32;98.79
15817;BME280;8009;50.070;8.232;2022-10-16T01:40:28;99744.50;;;14.35;98.66
15817;BME280;8009;50.070;8.232;2022-10-16T01:43:04;99753.38;;;14.18;99.94
15817;BME280;8009;50.070;8.232;2022-10-16T01:45:34;99751.50;;;14.18;100.00
15817;BME280;8009;50.070;8.232;2022-10-16T01:48:05;99750.22;;;14.32;99.27
15817;BME280;8009;50.070;8.232;2022-10-16T01:50:37;99746.63;;;14.31;99.07
15817;BME280;8009;50.070;8.232;2022-10-16T01:53:08;99747.50;;;14.32;99.00
15817;BME280;8009;50.070;8.232;2022-10-16T01:55:40;99741.63;;;14.27;98.83
15817;BME280;8009;50.070;8.232;2022-10-16T01:58:14;99755.94;;;14.29;99.00
15817;BME280;8009;50.070;8.232;2022-10-16T02:00:44;99754.06;;;14.29;99.13
15817;BME280;8009;50.070;8.232;2022-10-16T02:03:18;99751.91;;;14.33;98.78
15817;BME280;8009;50.070;8.232;2022-10-16T02:05:50;99755.78;;;14.30;98.28
15817;BME280;8009;50.070;8.232;2022-10-16T02:08:20;99756.50;;;14.32;98.32
15817;BME280;8009;50.070;8.232;2022-10-16T02:10:49;99761.75;;;14.34;98.25
15817;BME280;8009;50.070;8.232;2022-10-16T02:13:25;99757.91;;;14.36;98.67
15817;BME280;8009;50.070;8.232;2022-10-16T02:15:54;99756.78;;;14.29;98.69
15817;BME280;8009;50.070;8.232;2022-10-16T02:18:23;99750.78;;;14.35;98.50
15817;BME280;8009;50.070;8.232;2022-10-16T02:20:58;99752.75;;;14.33;98.81
15817;BME280;8009;50.070;8.232;2022-10-16T02:23:35;99753.63;;;14.34;98.41
15817;BME280;8009;50.070;8.232;2022-10-16T02:26:07;99766.78;;;14.29;98.55
15817;BME280;8009;50.070;8.232;2022-10-16T02:28:42;99761.06;;;14.32;98.45
15817;BME280;8009;50.070;8.232;2022-10-16T02:31:17;99762.09;;;14.31;98.87
15817;BME280;8009;50.070;8.232;2022-10-16T02:33:46;99754.63;;;14.33;98.95
15817;BME280;8009;50.070;8.232;2022-10-16T02:36:15;99759.38;;;14.31;99.21
15817;BME280;8009;50.070;8.232;2022-10-16T02:38:43;99756.94;;;14.28;99.46
15817;BME280;8009;50.070;8.232;2022-10-16T02:41:12;99763.78;;;14.32;99.28
15817;BME280;8009;50.070;8.232;2022-10-16T02:43:44;99775.53;;;14.13;100.00
15817;BME280;8009;50.070;8.232;2022-10-16T02:46:12;99781.78;;;14.33;99.59
15817;BME280;8009;50.070;8.232;2022-10-16T02:48:45;99774.94;;;14.29;99.56
15817;BME280;8009;50.070;8.232;2022-10-16T02:51:13;99770.34;;;14.29;99.34
15817;BME280;8009;50.070;8.232;2022-10-16T02:53:42;99760.38;;;14.20;99.64
15817;BME280;8009;50.070;8.232;2022-10-16T02:56:10;99755.53;;;14.24;99.95
15817;BME280;8009;50.070;8.232;2022-10-16T02:58:38;99757.22;;;14.25;99.57
15817;BME280;8009;50.070;8.232;2022-10-16T03:01:09;99760.06;;;14.33;99.58
15817;BME280;8009;50.070;8.232;2022-10-16T03:03:39;99759.66;;;14.28;99.26
15817;BME280;8009;50.070;8.232;2022-10-16T03:06:08;99758.06;;;14.25;99.64
15817;BME280;8009;50.070;8.232;2022-10-16T03:08:36;99771.22;;;14.30;99.26
15817;BME280;8009;50.070;8.232;2022-10-16T03:11:04;99762.50;;;14.26;99.57
15817;BME280;8009;50.070;8.232;2022-10-16T03:13:33;99770.94;;;14.33;99.32
15817;BME280;8009;50.070;8.232;2022-10-16T03:16:01;99773.22;;;14.28;99.33
15817;BME280;8009;50.070;8.232;2022-10-16T03:18:32;99776.81;;;14.28;99.40
15817;BME280;8009;50.070;8.232;2022-10-16T03:21:00;99782.81;;;14.32;99.20
15817;BME280;8009;50.070;8.232;2022-10-16T03:23:29;99777.50;;;14.30;99.23
15817;BME280;8009;50.070;8.232;2022-10-16T03:25:57;99779.63;;;14.27;99.63
15817;BME280;8009;50.070;8.232;2022-10-16T03:28:26;99773.22;;;14.28;99.38
15817;BME280;8009;50.070;8.232;2022-10-16T03:30:54;99780.53;;;14.27;99.45
15817;BME280;8009;50.070;8.232;2022-10-16T03:33:22;99789.25;;;14.31;99.61
15817;BME280;8009;50.070;8.232;2022-10-16T03:35:54;99784.09;;;14.28;99.38
15817;BME280;8009;50.070;8.232;2022-10-16T03:38:22;99783.94;;;14.29;99.54
15817;BME280;8009;50.070;8.232;2022-10-16T03:40:51;99792.53;;;14.25;99.17
15817;BME280;8009;50.070;8.232;2022-10-16T03:43:19;99792.53;;;14.25;99.29
15817;BME280;8009;50.070;8.232;2022-10-16T03:45:47;99784.53;;;14.23;99.57
15817;BME280;8009;50.070;8.232;2022-10-16T03:48:17;99794.66;;;14.31;99.44
15817;BME280;8009;50.070;8.232;2022-10-16T03:50:46;99789.53;;;14.28;99.46
15817;BME280;8009;50.070;8.232;2022-10-16T03:53:18;99801.81;;;14.32;99.48
15817;BME280;8009;50.070;8.232;2022-10-16T03:55:46;99797.38;;;14.31;99.37
15817;BME280;8009;50.070;8.232;2022-10-16T03:58:14;99782.22;;;14.28;99.61
15817;BME280;8009;50.070;8.232;2022-10-16T04:00:44;99783.25;;;14.27;99.41
15817;BME280;8009;50.070;8.232;2022-10-16T04:03:13;99787.22;;;14.33;99.47
15817;BME280;8009;50.070;8.232;2022-10-16T04:05:41;99794.22;;;14.26;99.65
15817;BME280;8009;50.070;8.232;2022-10-16T04:08:09;99791.50;;;14.26;99.67
15817;BME280;8009;50.070;8.232;2022-10-16T04:10:42;99795.66;;;14.30;99.28
15817;BME280;8009;50.070;8.232;2022-10-16T04:13:10;99797.38;;;14.31;99.44
15817;BME280;8009;50.070;8.232;2022-10-16T04:15:39;99792.81;;;14.31;99.33
15817;BME280;8009;50.070;8.232;2022-10-16T04:18:07;99799.38;;;14.38;99.18
15817;BME280;8009;50.070;8.232;2022-10-16T04:20:35;99796.78;;;14.37;98.91
15817;BME280;8009;50.070;8.232;2022-10-16T04:23:04;99802.50;;;14.34;99.20
15817;BME280;8009;50.070;8.232;2022-10-16T04:25:32;99806.22;;;14.33;99.30
15817;BME280;8009;50.070;8.232;2022-10-16T04:28:03;99808.94;;;14.33;99.37
15817;BME280;8009;50.070;8.232;2022-10-16T04:30:31;99805.38;;;14.32;99.27
15817;BME280;8009;50.070;8.232;2022-10-16T04:32:59;99806.50;;;14.30;99.91
15817;BME280;8009;50.070;8.232;2022-10-16T04:35:28;99809.22;;;14.30;100.00
15817;BME280;8009;50.070;8.232;2022-10-16T04:37:57;99810.25;;;14.29;100.00
15817;BME280;8009;50.070;8.232;2022-10-16T04:40:25;99811.94;;;14.30;100.00
15817;BME280;8009;50.070;8.232;2022-10-16T04:42:54;99808.78;;;14.34;99.68
15817;BME280;8009;50.070;8.232;2022-10-16T04:45:25;99809.81;;;14.33;99.72
15817;BME280;8009;50.070;8.232;2022-10-16T04:47:56;99821.97;;;14.29;100.00
15817;BME280;8009;50.070;8.232;2022-10-16T04:50:25;99823.81;;;14.38;99.74
15817;BME280;8009;50.070;8.232;2022-10-16T04:52:53;99827.38;;;14.29;99.84
15817;BME280;8009;50.070;8.232;2022-10-16T04:55:21;99828.25;;;14.30;99.84
15817;BME280;8009;50.070;8.232;2022-10-16T04:57:50;99825.25;;;14.33;99.98
15817;BME280;8009;50.070;8.232;2022-10-16T05:00:18;99823.81;;;14.29;99.60
15817;BME280;8009;50.070;8.232;2022-10-16T05:02:50;99826.69;;;14.27;100.00
15817;BME280;8009;50.070;8.232;2022-10-16T05:05:18;99827.81;;;14.34;99.93
15817;BME280;8009;50.070;8.232;2022-10-16T05:07:47;99817.50;;;14.38;99.65
15817;BME280;8009;50.070;8.232;2022-10-16T05:10:15;99813.53;;;14.32;99.81
15817;BME280;8009;50.070;8.232;2022-10-16T05:12:44;99817.94;;;14.33;99.83
15817;BME280;8009;50.070;8.232;2022-10-16T05:15:12;99814.78;;;14.38;99.76
15817;BME280;8009;50.070;8.232;2022-10-16T05:17:41;99813.09;;;14.37;99.57
15817;BME280;8009;50.070;8.232;2022-10-16T05:20:12;99812.66;;;14.32;99.50
15817;BME280;8009;50.070;8.232;2022-10-16T05:22:40;99820.66;;;14.33;100.00
15817;BME280;8009;50.070;8.232;2022-10-16T05:25:08;99811.38;;;14.26;100.00
15817;BME280;8009;50.070;8.232;2022-10-16T05:27:37;99814.81;;;14.28;99.77
15817;BME280;8009;50.070;8.232;2022-10-16T05:30:06;99814.66;;;14.30;99.94
15817;BME280;8009;50.070;8.232;2022-10-16T05:32:35;99825.25;;;14.33;99.24
15817;BME280;8009;50.070;8.232;2022-10-16T05:35:04;99821.97;;;14.29;99.59
15817;BME280;8009;50.070;8.232;2022-10-16T05:37:35;99829.66;;;14.34;99.68
15817;BME280;8009;50.070;8.232;2022-10-16T05:40:04;99831.09;;;14.38;99.29
15817;BME280;8009;50.070;8.232;2022-10-16T05:42:33;99834.69;;;14.38;99.13
15817;BME280;8009;50.070;8.232;2022-10-16T05:45:01;99843.69;;;14.39;98.94
15817;BME280;8009;50.070;8.232;2022-10-16T05:47:29;99846.69;;;14.36;99.36
15817;BME280;8009;50.070;8.232;2022-10-16T05:49:58;99850.81;;;14.30;99.94
15817;BME280;8009;50.070;8.232;2022-10-16T05:52:26;99852.13;;;14.36;99.67
15817;BME280;8009;50.070;8.232;2022-10-16T05:54:57;99857.56;;;14.36;99.65
15817;BME280;8009;50.070;8.232;2022-10-16T05:57:25;99853.13;;;14.35;99.52
15817;BME280;8009;50.070;8.232;2022-10-16T05:59:54;99859.41;;;14.35;100.00
15817;BME280;8009;50.070;8.232;2022-10-16T06:02:22;99859.25;;;14.37;99.90
15817;BME280;8009;50.070;8.232;2022-10-16T06:04:51;99863.69;;;14.38;99.65
15817;BME280;8009;50.070;8.232;2022-10-16T06:07:21;99866.84;;;14.43;99.47
15817;BME280;8009;50.070;8.232;2022-10-16T06:09:50;99871.13;;;14.36;100.00
15817;BME280;8009;50.070;8.232;2022-10-16T06:12:21;99874.84;;;14.25;100.00
15817;BME280;8009;50.070;8.232;2022-10-16T06:14:50;99874.28;;;14.31;100.00
15817;BME280;8009;50.070;8.232;2022-10-16T06:17:18;99877.72;;;14.43;100.00
15817;BME280;8009;50.070;8.232;2022-10-16T06:19:47;99859.28;;;14.47;99.57
15817;BME280;8009;50.070;8.232;2022-10-16T06:22:15;99862.25;;;14.44;99.56
15817;BME280;8009;50.070;8.232;2022-10-16T06:24:43;99848.97;;;14.41;99.71
15817;BME280;8009;50.070;8.232;2022-10-16T06:27:12;99863.28;;;14.43;99.47
15817;BME280;8009;50.070;8.232;2022-10-16T06:29:43;99872.44;;;14.51;98.86
15817;BME280;8009;50.070;8.232;2022-10-16T06:32:12;99874.56;;;14.48;99.30
15817;BME280;8009;50.070;8.232;2022-10-16T06:34:40;99871.28;;;14.44;99.39
15817;BME280;8009;50.070;8.232;2022-10-16T06:37:08;99869.84;;;14.40;99.87
15817;BME280;8009;50.070;8.232;2022-10-16T06:39:37;99872.56;;;14.40;99.75
15817;BME280;8009;50.070;8.232;2022-10-16T06:42:05;99879.25;;;14.46;99.40
15817;BME280;8009;50.070;8.232;2022-10-16T06:44:33;99884.69;;;14.46;99.48
15817;BME280;8009;50.070;8.232;2022-10-16T06:47:04;99890.72;;;14.49;99.21
15817;BME280;8009;50.070;8.232;2022-10-16T06:49:32;99890.72;;;14.49;99.10
15817;BME280;8009;50.070;8.232;2022-10-16T06:52:01;99894.19;;;14.51;99.25
15817;BME280;8009;50.070;8.232;2022-10-16T06:54:30;99891.75;;;14.58;99.24
15817;BME280;8009;50.070;8.232;2022-10-16T06:56:58;99890.84;;;14.48;99.83
15817;BME280;8009;50.070;8.232;2022-10-16T06:59:27;99892.72;;;14.47;99.71
15817;BME280;8009;50.070;8.232;2022-10-16T07:01:55;99889.59;;;14.52;99.78
15817;BME280;8009;50.070;8.232;2022-10-16T07:04:26;99889.75;;;14.50;99.71
15817;BME280;8009;50.070;8.232;2022-10-16T07:06:54;99904.03;;;14.62;99.31
15817;BME280;8009;50.070;8.232;2022-10-16T07:09:23;99900.03;;;14.66;99.02
15817;BME280;8009;50.070;8.232;2022-10-16T07:11:51;99913.06;;;14.62;99.22
15817;BME280;8009;50.070;8.232;2022-10-16T07:14:20;99921.91;;;14.55;99.85
15817;BME280;8009;50.070;8.232;2022-10-16T07:16:49;99928.91;;;14.57;99.91
15817;BME280;8009;50.070;8.232;2022-10-16T07:19:17;99936.66;;;14.62;100.00
15817;BME280;8009;50.070;8.232;2022-10-16T07:21:48;99934.19;;;14.69;99.15
15817;BME280;8009;50.070;8.232;2022-10-16T07:24:17;99934.50;;;14.66;99.41
15817;BME280;8009;50.070;8.232;2022-10-16T07:26:45;99946.50;;;14.73;99.24
15817;BME280;8009;50.070;8.232;2022-10-16T07:29:16;99952.94;;;14.72;99.53
15817;BME280;8009;50.070;8.232;2022-10-16T07:31:46;99954.66;;;14.73;99.58
15817;BME280;8009;50.070;8.232;2022-10-16T07:34:16;99956.50;;;14.72;99.21
15817;BME280;8009;50.070;8.232;2022-10-16T07:36:50;99957.94;;;14.76;99.67
15817;BME280;8009;50.070;8.232;2022-10-16T07:39:19;99954.09;;;14.79;99.52
15817;BME280;8009;50.070;8.232;2022-10-16T07:41:48;99965.38;;;14.84;99.36
15817;BME280;8009;50.070;8.232;2022-10-16T07:44:19;99966.38;;;14.83;99.72
15817;BME280;8009;50.070;8.232;2022-10-16T07:46:47;99972.25;;;14.78;99.41
15817;BME280;8009;50.070;8.232;2022-10-16T07:49:15;99978.25;;;14.82;99.00
15817;BME280;8009;50.070;8.232;2022-10-16T07:51:44;99995.72;;;14.89;99.32
15817;BME280;8009;50.070;8.232;2022-10-16T07:54:15;99994.88;;;14.89;99.00
15817;BME280;8009;50.070;8.232;2022-10-16T07:56:43;99991.41;;;14.86;98.92
15817;BME280;8009;50.070;8.232;2022-10-16T07:59:12;99991.72;;;14.93;99.20
15817;BME280;8009;50.070;8.232;2022-10-16T08:01:40;100000.00;;;14.92;99.42
15817;BME280;8009;50.070;8.232;2022-10-16T08:04:10;99998.84;;;14.94;98.84
15817;BME280;8009;50.070;8.232;2022-10-16T08:06:39;100012.00;;;14.99;98.63
15817;BME280;8009;50.070;8.232;2022-10-16T08:09:08;100013.19;;;14.96;99.00
15817;BME280;8009;50.070;8.232;2022-10-16T08:11:39;100026.63;;;14.98;98.70
15817;BME280;8009;50.070;8.232;2022-10-16T08:14:07;100022.19;;;14.97;98.52
15817;BME280;8009;50.070;8.232;2022-10-16T08:16:36;100030.91;;;15.00;98.39
15817;BME280;8009;50.070;8.232;2022-10-16T08:19:04;100026.88;;;14.95;98.77
15817;BME280;8009;50.070;8.232;2022-10-16T08:21:32;100020.75;;;14.93;99.18
15817;BME280;8009;50.070;8.232;2022-10-16T08:24:01;100021.00;;;14.99;98.49
15817;BME280;8009;50.070;8.232;2022-10-16T08:26:30;100025.19;;;15.03;98.51
15817;BME280;8009;50.070;8.232;2022-10-16T08:29:02;100033.75;;;14.99;98.69
15817;BME280;8009;50.070;8.232;2022-10-16T08:31:30;100038.63;;;15.05;97.82
15817;BME280;8009;50.070;8.232;2022-10-16T08:33:58;100040.34;;;15.06;98.67
15817;BME280;8009;50.070;8.232;2022-10-16T08:36:26;100044.78;;;15.07;98.44
15817;BME280;8009;50.070;8.232;2022-10-16T08:38:55;100052.06;;;15.06;99.06
15817;BME280;8009;50.070;8.232;2022-10-16T08:45:05;100059.66;;;15.03;98.52
15817;BME280;8009;50.070;8.232;2022-10-16T08:47:45;100055.09;;;15.03;98.89
15817;BME280;8009;50.070;8.232;2022-10-16T08:50:21;100060.38;;;15.15;97.89
15817;BME280;8009;50.070;8.232;2022-10-16T08:52:50;100052.78;;;14.99;98.71
15817;BME280;8009;50.070;8.232;2022-10-16T08:55:30;100065.25;;;15.11;97.90
15817;BME280;8009;50.070;8.232;2022-10-16T08:58:00;100066.38;;;14.99;99.26
15817;BME280;8009;50.070;8.232;2022-10-16T09:00:33;100065.09;;;15.13;97.80
15817;BME280;8009;50.070;8.232;2022-10-16T09:03:07;100076.84;;;15.13;97.71
15817;BME280;8009;50.070;8.232;2022-10-16T09:05:52;100074.53;;;15.18;97.63
15817;BME280;8009;50.070;8.232;2022-10-16T09:08:28;100084.13;;;15.22;97.78
15817;BME280;8009;50.070;8.232;2022-10-16T09:11:02;100089.88;;;15.19;98.37
15817;BME280;8009;50.070;8.232;2022-10-16T09:13:38;100102.47;;;15.20;97.24
15817;BME280;8009;50.070;8.232;2022-10-16T09:16:22;100105.47;;;15.17;97.70
15817;BME280;8009;50.070;8.232;2022-10-16T09:18:59;100102.03;;;15.15;97.20
15817;BME280;8009;50.070;8.232;2022-10-16T09:21:31;100096.59;;;15.15;97.27
15817;BME280;8009;50.070;8.232;2022-10-16T09:24:08;100093.16;;;15.23;96.58
15817;BME280;8009;50.070;8.232;2022-10-16T09:26:39;100099.47;;;15.23;97.00
15817;BME280;8009;50.070;8.232;2022-10-16T09:29:09;100102.59;;;15.28;96.89
15817;BME280;8009;50.070;8.232;2022-10-16T09:31:41;100102.59;;;15.28;97.92
15817;BME280;8009;50.070;8.232;2022-10-16T09:34:19;100111.06;;;15.35;97.30
15817;BME280;8009;50.070;8.232;2022-10-16T09:36:50;100118.19;;;15.36;97.28
15817;BME280;8009;50.070;8.232;2022-10-16T09:39:19;100116.63;;;15.33;98.03
15817;BME280;8009;50.070;8.232;2022-10-16T09:41:50;100116.22;;;15.38;96.87
15817;BME280;8009;50.070;8.232;2022-10-16T09:44:25;100113.50;;;15.38;96.87
15817;BME280;8009;50.070;8.232;2022-10-16T09:47:05;100120.50;;;15.50;95.77
15817;BME280;8009;50.070;8.232;2022-10-16T09:49:34;100126.91;;;15.59;95.99
15817;BME280;8009;50.070;8.232;2022-10-16T09:52:04;100125.50;;;15.65;94.66
15817;BME280;8009;50.070;8.232;2022-10-16T09:54:33;100121.19;;;15.72;93.68
15817;BME280;8009;50.070;8.232;2022-10-16T09:57:05;100122.91;;;15.82;92.65
15817;BME280;8009;50.070;8.232;2022-10-16T09:59:34;100119.59;;;15.89;93.00
15817;BME280;8009;50.070;8.232;2022-10-16T10:02:13;100113.81;;;16.01;92.76
15817;BME280;8009;50.070;8.232;2022-10-16T10:04:48;100117.38;;;16.12;92.22
15817;BME280;8009;50.070;8.232;2022-10-16T10:07:18;100118.72;;;16.35;90.18
15817;BME280;8009;50.070;8.232;2022-10-16T10:09:48;100119.44;;;16.37;90.74
15817;BME280;8009;50.070;8.232;2022-10-16T10:12:19;100116.34;;;16.22;92.01
15817;BME280;8009;50.070;8.232;2022-10-16T10:14:49;100120.94;;;16.22;90.80
15817;BME280;8009;50.070;8.232;2022-10-16T10:17:22;100123.03;;;16.28;90.98
15817;BME280;8009;50.070;8.232;2022-10-16T10:19:53;100123.97;;;16.46;90.28
15817;BME280;8009;50.070;8.232;2022-10-16T10:22:31;100119.06;;;16.50;88.58
15817;BME280;8009;50.070;8.232;2022-10-16T10:25:18;100108.63;;;16.73;86.82
15817;BME280;8009;50.070;8.232;2022-10-16T10:27:57;100113.09;;;16.74;87.79
15817;BME280;8009;50.070;8.232;2022-10-16T10:30:36;100120.53;;;16.72;84.93
15817;BME280;8009;50.070;8.232;2022-10-16T10:33:19;100127.31;;;16.68;84.06
15817;BME280;8009;50.070;8.232;2022-10-16T10:35:54;100119.13;;;16.68;84.04
15817;BME280;8009;50.070;8.232;2022-10-16T10:38:31;100116.69;;;16.65;82.38
15817;BME280;8009;50.070;8.232;2022-10-16T10:41:12;100118.06;;;16.78;87.90
15817;BME280;8009;50.070;8.232;2022-10-16T10:43:56;100117.06;;;16.79;81.46
15817;BME280;8009;50.070;8.232;2022-10-16T10:46:41;100117.72;;;16.91;82.01
15817;BME280;8009;50.070;8.232;2022-10-16T10:49:32;100123.38;;;16.98;85.21
15817;BME280;8009;50.070;8.232;2022-10-16T10:52:26;100121.94;;;17.03;79.90
15817;BME280;8009;50.070;8.232;2022-10-16T10:55:10;100127.53;;;16.84;81.96
15817;BME280;8009;50.070;8.232;2022-10-16T10:57:59;100127.13;;;16.97;79.42
15817;BME280;8009;50.070;8.232;2022-10-16T11:00:42;100130.53;;;16.81;79.45
15817;BME280;8009;50.070;8.232;2022-10-16T11:03:26;100117.63;;;17.01;80.89
15817;BME280;8009;50.070;8.232;2022-10-16T11:06:05;100109.69;;;17.08;83.33
15817;BME280;8009;50.070;8.232;2022-10-16T11:08:39;100115.09;;;17.17;79.41
15817;BME280;8009;50.070;8.232;2022-10-16T11:11:11;100109.72;;;17.25;83.19
15817;BME280;8009;50.070;8.232;2022-10-16T11:13:47;100110.78;;;17.33;78.40
15817;BME280;8009;50.070;8.232;2022-10-16T11:16:22;100112.50;;;17.16;77.90
15817;BME280;8009;50.070;8.232;2022-10-16T11:18:56;100108.44;;;17.38;81.82
15817;BME280;8009;50.070;8.232;2022-10-16T11:21:31;100119.22;;;17.21;78.60
15817;BME280;8009;50.070;8.232;2022-10-16T11:24:09;100115.53;;;17.13;76.84
15817;BME280;8009;50.070;8.232;2022-10-16T11:26:43;100114.31;;;17.25;84.67
15817;BME280;8009;50.070;8.232;2022-10-16T11:29:19;100109.28;;;17.38;82.41
15817;BME280;8009;50.070;8.232;2022-10-16T11:31:51;100111.72;;;17.41;84.03
15817;BME280;8009;50.070;8.232;2022-10-16T11:34:24;100115.72;;;17.29;84.84
15817;BME280;8009;50.070;8.232;2022-10-16T11:36:59;100104.06;;;17.27;83.46
15817;BME280;8009;50.070;8.232;2022-10-16T11:39:30;100104.84;;;17.37;78.45
15817;BME280;8009;50.070;8.232;2022-10-16T11:42:03;100108.50;;;17.28;84.19
15817;BME280;8009;50.070;8.232;2022-10-16T11:44:42;100106.44;;;17.22;76.91
15817;BME280;8009;50.070;8.232;2022-10-16T11:47:23;100098.22;;;17.04;77.21
15817;BME280;8009;50.070;8.232;2022-10-16T11:49:58;100098.78;;;17.08;78.98
15817;BME280;8009;50.070;8.232;2022-10-16T11:52:36;100107.44;;;17.21;83.96
15817;BME280;8009;50.070;8.232;2022-10-16T11:55:15;100108.38;;;17.29;79.77
15817;BME280;8009;50.070;8.232;2022-10-16T11:57:47;100120.81;;;17.32;83.92
15817;BME280;8009;50.070;8.232;2022-10-16T12:00:22;100113.50;;;17.50;82.60
15817;BME280;8009;50.070;8.232;2022-10-16T12:02:58;100105.53;;;17.39;76.73
15817;BME280;8009;50.070;8.232;2022-10-16T12:05:38;100110.72;;;17.07;77.37
15817;BME280;8009;50.070;8.232;2022-10-16T12:08:16;100104.16;;;17.35;80.52
15817;BME280;8009;50.070;8.232;2022-10-16T12:10:47;100109.63;;;16.99;77.65
15817;BME280;8009;50.070;8.232;2022-10-16T12:13:33;100113.66;;;17.31;84.99
15817;BME280;8009;50.070;8.232;2022-10-16T12:16:22;100110.94;;;17.49;83.20
15817;BME280;8009;50.070;8.232;2022-10-16T12:19:09;100124.09;;;17.53;84.72
15817;BME280;8009;50.070;8.232;2022-10-16T12:21:38;100122.28;;;17.62;82.11
15817;BME280;8009;50.070;8.232;2022-10-16T12:24:21;100121.84;;;17.49;80.24
15817;BME280;8009;50.070;8.232;2022-10-16T12:26:52;100123.00;;;17.46;79.39
15817;BME280;8009;50.070;8.232;2022-10-16T12:29:27;100122.38;;;17.17;76.12
15817;BME280;8009;50.070;8.232;2022-10-16T12:31:58;100123.09;;;17.19;77.15
15817;BME280;8009;50.070;8.232;2022-10-16T12:34:28;100133.63;;;17.14;75.63
15817;BME280;8009;50.070;8.232;2022-10-16T12:37:09;100137.75;;;17.36;84.77
15817;BME280;8009;50.070;8.232;2022-10-16T12:39:41;100133.97;;;17.28;76.58
15817;BME280;8009;50.070;8.232;2022-10-16T12:42:30;100138.84;;;17.43;85.97
15817;BME280;8009;50.070;8.232;2022-10-16T12:44:59;100125.81;;;17.54;84.71
15817;BME280;8009;50.070;8.232;2022-10-16T12:47:47;100125.81;;;17.54;85.02
15817;BME280;8009;50.070;8.232;2022-10-16T12:50:38;100133.84;;;17.56;81.16
15817;BME280;8009;50.070;8.232;2022-10-16T12:53:18;100128.72;;;17.53;77.72
15817;BME280;8009;50.070;8.232;2022-10-16T12:55:56;100136.84;;;17.45;78.22
15817;BME280;8009;50.070;8.232;2022-10-16T12:58:40;100126.34;;;17.58;84.76
15817;BME280;8009;50.070;8.232;2022-10-16T13:01:23;100130.34;;;17.64;85.02
15817;BME280;8009;50.070;8.232;2022-10-16T13:06:58;100131.81;;;17.58;83.10
15817;BME280;8009;50.070;8.232;2022-10-16T13:09:42;100121.59;;;17.60;84.07
15817;BME280;8009;50.070;8.232;2022-10-16T13:12:30;100118.44;;;17.73;82.11
15817;BME280;8009;50.070;8.232;2022-10-16T13:15:22;100131.69;;;17.42;76.23
15817;BME280;8009;50.070;8.232;2022-10-16T13:18:00;100139.25;;;17.48;77.90
15817;BME280;8009;50.070;8.232;2022-10-16T13:20:35;100126.75;;;17.63;77.81
15817;BME280;8009;50.070;8.232;2022-10-16T13:23:12;100122.22;;;17.54;77.64
15817;BME280;8009;50.070;8.232;2022-10-16T13:25:51;100125.06;;;17.70;83.25
15817;BME280;8009;50.070;8.232;2022-10-16T13:28:28;100114.69;;;17.74;83.40
15817;BME280;8009;50.070;8.232;2022-10-16T13:30:58;100112.22;;;17.63;77.76
15817;BME280;8009;50.070;8.232;2022-10-16T13:33:32;100116.28;;;17.76;84.22
15817;BME280;8009;50.070;8.232;2022-10-16T13:36:02;100116.66;;;17.82;83.95
15817;BME280;8009;50.070;8.232;2022-10-16T13:38:34;100114.41;;;17.77;84.58